Time;durP1;ratioP1;P1;durP2;ratioP2;P2;SDS_P1;SDS_P2;PMS_P1;PMS_P2;Temp;Humidity;BMP_temperature;BMP_pressure;BME280_temperature;BME280_humidity;BME280_pressure;Samples;Min_cycle;Max_cycle;Signal;HPM_P1;HPM_P2
2022/09/29 00:02:21;;;;;;;;;;;;;;;12.74;100.00;96473.75;5078867;28;19950;-62
2022/09/29 00:04:48;;;;;;;;;;;;;;;12.74;100.00;96479.13;5081717;28;20091;-62
2022/09/29 00:07:15;;;;;;;;;;;;;;;12.75;100.00;96478.00;5082294;28;19927;-62
2022/09/29 00:09:42;;;;;;;;;;;;;;;12.62;100.00;96483.50;5085222;28;19955;-62
2022/09/29 00:12:08;;;;;;;;;;;;;;;12.67;100.00;96478.78;5085104;28;19928;-61
2022/09/29 00:14:34;;;;;;;;;;;;;;;12.70;100.00;96478.16;5073605;28;20019;-61
2022/09/29 00:17:01;;;;;;;;;;;;;;;12.61;100.00;96480.03;5081393;28;20433;-61
2022/09/29 00:19:27;;;;;;;;;;;;;;;12.62;100.00;96489.63;5083905;28;20007;-63
2022/09/29 00:21:53;;;;;;;;;;;;;;;12.54;100.00;96492.25;5084989;28;20607;-61
2022/09/29 00:24:21;;;;;;;;;;;;;;;12.63;100.00;96493.88;5082383;28;19952;-61
2022/09/29 00:26:47;;;;;;;;;;;;;;;12.68;100.00;96492.97;5081559;28;20248;-62
2022/09/29 00:29:14;;;;;;;;;;;;;;;12.63;100.00;96493.88;5082076;28;19924;-62
2022/09/29 00:31:40;;;;;;;;;;;;;;;12.65;100.00;96494.38;5084983;28;19975;-62
2022/09/29 00:34:07;;;;;;;;;;;;;;;12.50;100.00;96500.16;5084865;28;19928;-61
2022/09/29 00:36:33;;;;;;;;;;;;;;;12.53;100.00;96491.50;5081230;28;19925;-62
2022/09/29 00:38:59;;;;;;;;;;;;;;;12.50;100.00;96499.34;5081270;28;19924;-62
2022/09/29 00:41:28;;;;;;;;;;;;;;;12.52;100.00;96489.91;5083509;28;20172;-62
2022/09/29 00:43:56;;;;;;;;;;;;;;;12.49;100.00;96484.38;5084905;28;19997;-63
2022/09/29 00:46:26;;;;;;;;;;;;;;;12.44;100.00;96491.44;5082317;28;19921;-63
2022/09/29 00:48:54;;;;;;;;;;;;;;;12.56;100.00;96492.75;5080894;28;19928;-63
2022/09/29 00:51:21;;;;;;;;;;;;;;;12.58;100.00;96487.88;5082437;28;19928;-64
2022/09/29 00:53:48;;;;;;;;;;;;;;;12.62;100.00;96499.56;5083199;28;19988;-62
2022/09/29 00:56:16;;;;;;;;;;;;;;;12.60;100.00;96491.81;5083040;28;19925;-62
2022/09/29 00:58:50;;;;;;;;;;;;;;;12.67;100.00;96492.16;5080828;28;19931;-62
2022/09/29 01:01:16;;;;;;;;;;;;;;;12.53;100.00;96485.34;5081417;28;19925;-64
2022/09/29 01:03:45;;;;;;;;;;;;;;;12.34;100.00;96474.88;5084013;28;19960;-62
2022/09/29 01:06:14;;;;;;;;;;;;;;;12.33;100.00;96473.28;5083398;28;19992;-61
2022/09/29 01:08:42;;;;;;;;;;;;;;;12.41;100.00;96475.22;5080483;28;19928;-62
2022/09/29 01:11:09;;;;;;;;;;;;;;;12.43;100.00;96475.72;5080391;28;20251;-62
2022/09/29 01:13:36;;;;;;;;;;;;;;;12.52;100.00;96475.72;5083836;28;19989;-63
2022/09/29 01:16:03;;;;;;;;;;;;;;;12.49;100.00;96474.47;5083879;28;19934;-62
2022/09/29 01:18:30;;;;;;;;;;;;;;;12.31;100.00;96473.63;5080539;28;19925;-62
2022/09/29 01:21:01;;;;;;;;;;;;;;;12.43;100.00;96475.72;5079874;28;20015;-62
2022/09/29 01:23:48;;;;;;;;;;;;;;;12.12;100.00;96469.56;5081628;28;19995;-62
2022/09/29 01:26:27;;;;;;;;;;;;;;;12.05;100.00;96461.97;5082547;28;19924;-62
2022/09/29 01:29:07;;;;;;;;;;;;;;;12.13;100.00;96471.16;5080166;28;20198;-63
2022/09/29 01:31:37;;;;;;;;;;;;;;;12.15;100.00;96469.75;5083402;28;19924;-62
2022/09/29 01:34:06;;;;;;;;;;;;;;;12.31;100.00;96468.25;5083391;28;19959;-63
2022/09/29 01:36:38;;;;;;;;;;;;;;;12.40;100.00;96473.66;5079786;28;19940;-62
2022/09/29 01:39:10;;;;;;;;;;;;;;;12.44;100.00;96467.34;5079973;28;19928;-62
2022/09/29 01:41:41;;;;;;;;;;;;;;;12.42;100.00;96468.75;5071960;28;19992;-62
2022/09/29 01:44:13;;;;;;;;;;;;;;;12.19;100.00;96464.59;5079761;28;20397;-63
2022/09/29 01:46:44;;;;;;;;;;;;;;;12.15;100.00;96469.75;5072206;28;19924;-62
2022/09/29 01:49:11;;;;;;;;;;;;;;;11.74;100.00;96470.00;5079874;28;19953;-62
2022/09/29 01:51:40;;;;;;;;;;;;;;;11.80;100.00;96478.66;5083123;28;19924;-62
2022/09/29 01:54:11;;;;;;;;;;;;;;;12.03;100.00;96477.56;5082122;28;19931;-62
2022/09/29 01:56:39;;;;;;;;;;;;;;;12.21;100.00;96473.09;5071579;28;19924;-62
2022/09/29 01:59:10;;;;;;;;;;;;;;;12.27;100.00;96471.84;5079451;28;19921;-62
2022/09/29 02:01:39;;;;;;;;;;;;;;;12.33;100.00;96470.63;5071531;28;20325;-62
2022/09/29 02:04:09;;;;;;;;;;;;;;;12.39;100.00;96458.66;5079308;28;19924;-61
2022/09/29 02:06:39;;;;;;;;;;;;;;;12.38;100.00;96462.44;5071305;28;20614;-62
2022/09/29 02:09:11;;;;;;;;;;;;;;;12.43;100.00;96462.31;5079218;28;19952;-62
2022/09/29 02:11:40;;;;;;;;;;;;;;;12.44;100.00;96459.31;5071435;28;20004;-62
2022/09/29 02:14:11;;;;;;;;;;;;;;;12.44;100.00;96463.88;5079229;28;20027;-61
2022/09/29 02:16:40;;;;;;;;;;;;;;;12.38;100.00;96465.13;5071157;28;19932;-62
2022/09/29 02:19:10;;;;;;;;;;;;;;;12.17;100.00;96466.75;5079153;28;19981;-62
2022/09/29 02:21:36;;;;;;;;;;;;;;;11.89;100.00;96461.59;5071042;28;19924;-62
2022/09/29 02:24:02;;;;;;;;;;;;;;;11.91;100.00;96469.31;5078098;28;19997;-63
2022/09/29 02:26:32;;;;;;;;;;;;;;;12.07;100.00;96467.81;5079189;28;19964;-62
2022/09/29 02:28:59;;;;;;;;;;;;;;;12.16;100.00;96475.91;5078959;28;19925;-63
2022/09/29 02:31:26;;;;;;;;;;;;;;;12.25;100.00;96464.16;5081266;28;20032;-63
2022/09/29 02:33:52;;;;;;;;;;;;;;;12.30;100.00;96481.94;5082383;28;19935;-61
2022/09/29 02:36:28;;;;;;;;;;;;;;;12.32;100.00;96475.19;5080564;28;19971;-62
2022/09/29 02:39:00;;;;;;;;;;;;;;;12.30;100.00;96482.75;5078818;28;20361;-62
2022/09/29 02:41:33;;;;;;;;;;;;;;;12.29;100.00;96480.34;5081116;28;19925;-62
2022/09/29 02:44:16;;;;;;;;;;;;;;;12.19;100.00;96481.41;5082201;28;19979;-63
2022/09/29 02:46:50;;;;;;;;;;;;;;;12.26;100.00;96487.13;5071583;28;19924;-62
2022/09/29 02:49:27;;;;;;;;;;;;;;;12.30;100.00;96473.91;5079526;28;19988;-62
2022/09/29 02:51:58;;;;;;;;;;;;;;;12.30;100.00;96482.75;5081868;28;20113;-62
2022/09/29 02:54:33;;;;;;;;;;;;;;;12.32;100.00;96469.03;5077258;28;19927;-63
2022/09/29 02:57:04;;;;;;;;;;;;;;;12.29;100.00;96475.00;5078474;28;19932;-62
2022/09/29 02:59:34;;;;;;;;;;;;;;;12.29;100.00;96478.47;5081259;28;19936;-61
2022/09/29 03:02:01;;;;;;;;;;;;;;;12.32;100.00;96477.84;5081555;28;19930;-62
2022/09/29 03:04:27;;;;;;;;;;;;;;;12.26;100.00;96479.09;5079147;28;19924;-62
2022/09/29 03:06:54;;;;;;;;;;;;;;;12.13;100.00;96471.16;5078372;28;19924;-62
2022/09/29 03:09:22;;;;;;;;;;;;;;;12.02;100.00;96475.97;5079798;28;19980;-62
2022/09/29 03:11:48;;;;;;;;;;;;;;;12.00;100.00;96472.03;5081719;28;19925;-62
2022/09/29 03:14:14;;;;;;;;;;;;;;;12.02;100.00;96483.22;5080530;28;19991;-62
2022/09/29 03:16:41;;;;;;;;;;;;;;;12.02;100.00;96485.88;5077763;28;19928;-62
2022/09/29 03:19:08;;;;;;;;;;;;;;;12.09;100.00;96488.94;5077755;28;19925;-62
2022/09/29 03:21:34;;;;;;;;;;;;;;;12.09;100.00;96473.66;5069191;28;20542;-62
2022/09/29 03:24:01;;;;;;;;;;;;;;;12.14;100.00;96478.88;5076474;28;19943;-62
2022/09/29 03:26:29;;;;;;;;;;;;;;;12.16;100.00;96482.03;5078487;28;19931;-62
2022/09/29 03:28:55;;;;;;;;;;;;;;;12.19;100.00;96480.63;5077571;28;19929;-61
2022/09/29 03:31:22;;;;;;;;;;;;;;;12.21;100.00;96478.44;5079253;28;19925;-62
2022/09/29 03:33:48;;;;;;;;;;;;;;;12.21;100.00;96484.59;5081011;28;19925;-62
2022/09/29 03:36:14;;;;;;;;;;;;;;;12.16;100.00;96487.38;5079987;28;19944;-62
2022/09/29 03:38:42;;;;;;;;;;;;;;;12.20;100.00;96493.69;5076545;28;19980;-63
2022/09/29 03:41:09;;;;;;;;;;;;;;;12.18;100.00;96487.09;5077508;28;19925;-61
2022/09/29 03:43:36;;;;;;;;;;;;;;;12.19;100.00;96478.72;5081007;28;19928;-61
2022/09/29 03:46:03;;;;;;;;;;;;;;;12.19;100.00;96486.75;5080879;28;19924;-62
2022/09/29 03:48:30;;;;;;;;;;;;;;;12.18;100.00;96487.09;5077924;28;19935;-61
2022/09/29 03:50:57;;;;;;;;;;;;;;;12.15;100.00;96485.03;5077453;28;19924;-61
2022/09/29 03:53:23;;;;;;;;;;;;;;;12.11;100.00;96484.03;5078122;28;20035;-63
2022/09/29 03:55:50;;;;;;;;;;;;;;;12.13;100.00;96476.53;5080703;28;19984;-62
2022/09/29 03:58:17;;;;;;;;;;;;;;;11.95;100.00;96482.84;5079500;28;19924;-62
2022/09/29 04:00:45;;;;;;;;;;;;;;;11.70;100.00;96486.94;5077193;28;19925;-62
2022/09/29 04:03:11;;;;;;;;;;;;;;;11.73;100.00;96479.09;5077409;28;19925;-62
2022/09/29 04:05:39;;;;;;;;;;;;;;;11.86;100.00;96474.78;5080644;28;20380;-62
2022/09/29 04:08:05;;;;;;;;;;;;;;;11.55;100.00;96479.25;5080650;28;19979;-61
2022/09/29 04:10:34;;;;;;;;;;;;;;;11.10;100.00;96473.06;5077351;28;19925;-61
2022/09/29 04:13:00;;;;;;;;;;;;;;;11.22;100.00;96474.13;5077123;28;19951;-62
2022/09/29 04:15:26;;;;;;;;;;;;;;;11.43;100.00;96479.78;5079387;28;19925;-62
2022/09/29 04:17:54;;;;;;;;;;;;;;;11.58;100.00;96482.09;5080693;28;20416;-62
2022/09/29 04:20:20;;;;;;;;;;;;;;;11.71;100.00;96478.63;5078671;28;19985;-62
2022/09/29 04:22:47;;;;;;;;;;;;;;;11.79;100.00;96471.75;5075912;28;19989;-61
2022/09/29 04:25:13;;;;;;;;;;;;;;;11.81;100.00;96470.34;5077697;28;19980;-62
2022/09/29 04:27:39;;;;;;;;;;;;;;;11.88;100.00;96473.38;5080545;28;19974;-62
2022/09/29 04:30:06;;;;;;;;;;;;;;;11.93;100.00;96469.00;5080516;28;19983;-62
2022/09/29 04:32:33;;;;;;;;;;;;;;;11.79;100.00;96472.53;5077232;28;20381;-62
2022/09/29 04:35:00;;;;;;;;;;;;;;;11.51;100.00;96478.28;5077218;28;19982;-62
2022/09/29 04:37:27;;;;;;;;;;;;;;;11.41;100.00;96471.28;5079607;28;19925;-61
2022/09/29 04:39:53;;;;;;;;;;;;;;;11.57;100.00;96477.06;5080729;28;19973;-63
2022/09/29 04:42:19;;;;;;;;;;;;;;;11.69;100.00;96472.75;5079200;28;20004;-62
2022/09/29 04:44:46;;;;;;;;;;;;;;;11.76;100.00;96473.13;5077499;28;19925;-62
2022/09/29 04:47:12;;;;;;;;;;;;;;;11.80;100.00;96466.09;5077959;28;19964;-62
2022/09/29 04:49:38;;;;;;;;;;;;;;;11.77;100.00;96477.41;5082750;28;19935;-62
2022/09/29 04:52:06;;;;;;;;;;;;;;;11.84;100.00;96475.09;5084240;28;20312;-62
2022/09/29 04:54:32;;;;;;;;;;;;;;;11.85;100.00;96482.00;5079880;28;19991;-61
2022/09/29 04:56:59;;;;;;;;;;;;;;;11.88;100.00;96485.97;5081040;28;19980;-61
2022/09/29 04:59:26;;;;;;;;;;;;;;;11.86;100.00;96477.44;5083385;28;19924;-62
2022/09/29 05:01:52;;;;;;;;;;;;;;;11.86;100.00;96480.91;5084445;28;19924;-62
2022/09/29 05:04:18;;;;;;;;;;;;;;;11.91;100.00;96485.38;5083504;28;19931;-63
2022/09/29 05:06:45;;;;;;;;;;;;;;;11.90;100.00;96489.91;5080961;28;19924;-61
2022/09/29 05:09:13;;;;;;;;;;;;;;;11.86;100.00;96491.63;5080901;28;19997;-61
2022/09/29 05:11:39;;;;;;;;;;;;;;;11.88;100.00;96502.03;5084485;28;19925;-61
2022/09/29 05:14:05;;;;;;;;;;;;;;;11.88;100.00;96502.78;5084496;28;19954;-61
2022/09/29 05:16:32;;;;;;;;;;;;;;;11.93;100.00;96487.72;5080927;28;19925;-62
2022/09/29 05:18:58;;;;;;;;;;;;;;;11.72;100.00;96493.59;5080703;28;19924;-61
2022/09/29 05:21:25;;;;;;;;;;;;;;;11.51;100.00;96497.81;5082343;28;19935;-63
2022/09/29 05:23:51;;;;;;;;;;;;;;;11.64;100.00;96512.97;5082176;28;19960;-61
2022/09/29 05:26:19;;;;;;;;;;;;;;;11.73;100.00;96507.72;5082696;28;19924;-61
2022/09/29 05:28:46;;;;;;;;;;;;;;;11.81;100.00;96517.72;5080591;28;19935;-62
2022/09/29 05:31:13;;;;;;;;;;;;;;;11.85;100.00;96507.97;5080903;28;19931;-63
2022/09/29 05:33:40;;;;;;;;;;;;;;;11.85;100.00;96516.00;5083913;28;20067;-62
2022/09/29 05:36:08;;;;;;;;;;;;;;;11.90;100.00;96511.31;5083553;28;19966;-62
2022/09/29 05:38:35;;;;;;;;;;;;;;;11.89;100.00;96511.59;5071957;28;19953;-61
2022/09/29 05:41:03;;;;;;;;;;;;;;;11.94;100.00;96503.47;5080125;28;19931;-62
2022/09/29 05:43:31;;;;;;;;;;;;;;;11.86;100.00;96513.00;5082972;28;19928;-62
2022/09/29 05:45:59;;;;;;;;;;;;;;;11.77;100.00;96511.38;5083398;28;19931;-62
2022/09/29 05:48:25;;;;;;;;;;;;;;;11.27;100.00;96518.63;5081077;28;19988;-62
2022/09/29 05:50:52;;;;;;;;;;;;;;;11.04;100.00;96515.13;5080124;28;19929;-62
2022/09/29 05:53:18;;;;;;;;;;;;;;;10.93;100.00;96518.31;5086913;28;19924;-62
2022/09/29 05:55:44;;;;;;;;;;;;;;;11.14;100.00;96514.13;5079711;28;19992;-63
2022/09/29 05:58:10;;;;;;;;;;;;;;;11.09;100.00;96508.88;5079696;28;19931;-63
2022/09/29 06:00:39;;;;;;;;;;;;;;;11.17;100.00;96506.28;5082212;28;19924;-62
2022/09/29 06:03:05;;;;;;;;;;;;;;;11.20;100.00;96499.56;5083106;28;19935;-62
2022/09/29 06:05:31;;;;;;;;;;;;;;;11.17;100.00;96492.94;5079832;28;20023;-62
2022/09/29 06:08:02;;;;;;;;;;;;;;;11.33;100.00;96491.50;5079402;28;19932;-62
2022/09/29 06:10:28;;;;;;;;;;;;;;;11.50;100.00;96495.41;5081967;28;19924;-63
2022/09/29 06:12:55;;;;;;;;;;;;;;;11.57;100.00;96507.28;5082897;28;19979;-62
2022/09/29 06:15:22;;;;;;;;;;;;;;;11.46;100.00;96497.91;5080903;28;19924;-62
2022/09/29 06:17:54;;;;;;;;;;;;;;;11.37;100.00;96505.84;5079187;28;19924;-62
2022/09/29 06:20:21;;;;;;;;;;;;;;;11.63;100.00;96492.69;5080423;28;19988;-63
2022/09/29 06:22:47;;;;;;;;;;;;;;;11.71;100.00;96497.34;5076206;28;19928;-62
2022/09/29 06:25:14;;;;;;;;;;;;;;;11.55;100.00;96490.72;5079569;28;19946;-61
2022/09/29 06:27:40;;;;;;;;;;;;;;;11.33;100.00;96482.69;5082514;28;19931;-62
2022/09/29 06:30:07;;;;;;;;;;;;;;;11.25;100.00;96486.88;5082497;28;19996;-62
2022/09/29 06:32:34;;;;;;;;;;;;;;;11.43;100.00;96479.00;5079091;28;20023;-62
2022/09/29 06:37:46;;;;;;;;;;;;;;;11.74;100.00;96475.34;5071898;28;19990;-61
2022/09/29 06:40:12;;;;;;;;;;;;;;;11.53;100.00;96476.88;5079050;28;19931;-61
2022/09/29 06:42:39;;;;;;;;;;;;;;;11.51;100.00;96478.28;5082017;28;19987;-62
2022/09/29 06:45:06;;;;;;;;;;;;;;;11.58;100.00;96474.09;5082089;28;19956;-64
2022/09/29 06:47:32;;;;;;;;;;;;;;;11.55;100.00;96479.25;5078601;28;19964;-62
2022/09/29 06:50:01;;;;;;;;;;;;;;;11.47;100.00;96483.44;5078545;28;19968;-62
2022/09/29 06:52:29;;;;;;;;;;;;;;;11.21;100.00;96487.78;5080638;28;19947;-62
2022/09/29 06:54:55;;;;;;;;;;;;;;;11.13;100.00;96486.63;5082070;28;19924;-61
2022/09/29 06:57:21;;;;;;;;;;;;;;;10.74;100.00;96492.50;5080011;28;20003;-61
2022/09/29 06:59:47;;;;;;;;;;;;;;;10.74;100.00;96500.50;5078205;28;19988;-62
2022/09/29 07:02:17;;;;;;;;;;;;;;;10.69;100.00;96497.97;5078765;28;19980;-62
2022/09/29 07:04:46;;;;;;;;;;;;;;;10.95;100.00;96506.25;5081892;28;20027;-63
2022/09/29 07:07:13;;;;;;;;;;;;;;;10.93;100.00;96497.72;5081116;28;19927;-62
2022/09/29 07:09:41;;;;;;;;;;;;;;;10.96;100.00;96502.47;5078420;28;19968;-62
2022/09/29 07:12:08;;;;;;;;;;;;;;;11.00;100.00;96500.00;5078238;28;19947;-61
2022/09/29 07:14:34;;;;;;;;;;;;;;;10.87;100.00;96506.94;5081571;28;19924;-61
2022/09/29 07:17:01;;;;;;;;;;;;;;;11.00;100.00;96506.13;5081427;28;20011;-61
2022/09/29 07:19:27;;;;;;;;;;;;;;;11.13;100.00;96517.88;5078770;28;19959;-61
2022/09/29 07:21:54;;;;;;;;;;;;;;;11.32;100.00;96515.88;5077821;28;19947;-61
2022/09/29 07:24:20;;;;;;;;;;;;;;;11.30;100.00;96512.69;5076591;28;20011;-62
2022/09/29 07:26:48;;;;;;;;;;;;;;;11.26;100.00;96501.03;5077761;28;19924;-61
2022/09/29 07:29:15;;;;;;;;;;;;;;;11.23;100.00;96512.34;5078281;28;19980;-62
2022/09/29 07:31:41;;;;;;;;;;;;;;;10.96;100.00;96515.03;5081077;28;19950;-62
2022/09/29 07:34:07;;;;;;;;;;;;;;;10.71;100.00;96521.66;5081203;28;19967;-61
2022/09/29 07:36:37;;;;;;;;;;;;;;;10.55;100.00;96529.19;5077749;28;19956;-62
2022/09/29 07:39:04;;;;;;;;;;;;;;;10.54;100.00;96527.63;5077518;28;19931;-62
2022/09/29 07:41:30;;;;;;;;;;;;;;;10.60;100.00;96526.44;5080411;28;19983;-61
2022/09/29 07:43:58;;;;;;;;;;;;;;;10.70;100.00;96531.59;5081016;28;20484;-62
2022/09/29 07:46:24;;;;;;;;;;;;;;;10.80;100.00;96534.03;5078819;28;19988;-62
2022/09/29 07:48:50;;;;;;;;;;;;;;;11.00;100.00;96534.72;5077604;28;19984;-63
2022/09/29 07:51:18;;;;;;;;;;;;;;;10.96;100.00;96537.19;5078496;28;19929;-61
2022/09/29 07:53:44;;;;;;;;;;;;;;;11.00;100.00;96551.53;5083421;28;19984;-62
2022/09/29 07:56:11;;;;;;;;;;;;;;;10.89;100.00;96544.03;5077729;28;19988;-62
2022/09/29 07:58:38;;;;;;;;;;;;;;;10.74;100.00;96545.09;5080776;28;20058;-61
2022/09/29 08:01:11;;;;;;;;;;;;;;;10.65;100.00;96542.34;5081061;28;19991;-61
2022/09/29 08:03:38;;;;;;;;;;;;;;;10.74;100.00;96547.78;5069807;28;19924;-60
2022/09/29 08:06:05;;;;;;;;;;;;;;;10.63;100.00;96536.53;5077663;28;19931;-61
2022/09/29 08:08:31;;;;;;;;;;;;;;;10.72;100.00;96541.97;5080597;28;19967;-61
2022/09/29 08:11:04;;;;;;;;;;;;;;;10.64;100.00;96548.78;5081021;28;19925;-62
2022/09/29 08:13:31;;;;;;;;;;;;;;;10.59;100.00;96546.19;5078151;28;19928;-62
2022/09/29 08:15:58;;;;;;;;;;;;;;;10.54;100.00;96546.31;5077581;28;20062;-61
2022/09/29 08:18:26;;;;;;;;;;;;;;;10.40;100.00;96553.50;5079197;28;19925;-62
2022/09/29 08:20:53;;;;;;;;;;;;;;;10.37;100.00;96556.75;5080359;28;19996;-62
2022/09/29 08:23:19;;;;;;;;;;;;;;;10.43;100.00;96555.56;5071055;28;19936;-61
2022/09/29 08:25:45;;;;;;;;;;;;;;;10.55;100.00;96558.53;5084603;28;19925;-62
2022/09/29 08:28:12;;;;;;;;;;;;;;;10.52;100.00;96567.13;5084231;28;19924;-61
2022/09/29 08:30:38;;;;;;;;;;;;;;;10.40;100.00;96556.16;5081457;28;19974;-62
2022/09/29 08:33:07;;;;;;;;;;;;;;;10.43;100.00;96566.25;5081012;28;19988;-61
2022/09/29 08:35:35;;;;;;;;;;;;;;;10.47;100.00;96569.91;5084306;28;19928;-61
2022/09/29 08:38:01;;;;;;;;;;;;;;;10.84;100.00;96564.41;5084302;28;19984;-61
2022/09/29 08:40:28;;;;;;;;;;;;;;;11.11;100.00;96570.84;5081961;28;20070;-61
2022/09/29 08:42:59;;;;;;;;;;;;;;;11.13;100.00;96576.66;5081061;28;19921;-62
2022/09/29 08:45:28;;;;;;;;;;;;;;;10.95;100.00;96580.25;5083080;28;19996;-61
2022/09/29 08:48:01;;;;;;;;;;;;;;;10.87;100.00;96583.59;5083251;28;20019;-61
2022/09/29 08:50:30;;;;;;;;;;;;;;;10.81;100.00;96582.91;5081930;28;19932;-60
2022/09/29 08:53:01;;;;;;;;;;;;;;;10.82;100.00;96587.97;5086045;28;19935;-62
2022/09/29 08:55:33;;;;;;;;;;;;;;;10.77;100.00;96585.38;5080508;28;19925;-61
2022/09/29 08:58:01;;;;;;;;;;;;;;;10.73;100.00;96594.28;5080587;28;19931;-62
2022/09/29 09:00:36;;;;;;;;;;;;;;;10.86;100.00;96582.81;5082832;28;19924;-62
2022/09/29 09:03:09;;;;;;;;;;;;;;;10.96;100.00;96582.59;5084145;28;20517;-61
2022/09/29 09:05:47;;;;;;;;;;;;;;;11.11;100.00;96568.94;5072285;28;19980;-63
2022/09/29 09:08:20;;;;;;;;;;;;;;;11.15;100.00;96574.47;5080890;28;19996;-62
2022/09/29 09:10:49;;;;;;;;;;;;;;;11.25;100.00;96575.06;5083886;28;19935;-62
2022/09/29 09:13:25;;;;;;;;;;;;;;;11.28;100.00;96573.69;5082960;28;19959;-62
2022/09/29 09:15:59;;;;;;;;;;;;;;;11.17;100.00;96577.66;5080183;28;19931;-62
2022/09/29 09:18:35;;;;;;;;;;;;;;;11.23;100.00;96576.47;5082288;28;19951;-61
2022/09/29 09:21:07;;;;;;;;;;;;;;;11.19;100.00;96576.28;5083729;28;19931;-62
2022/09/29 09:23:40;;;;;;;;;;;;;;;11.22;100.00;96567.66;5074169;28;19929;-62
2022/09/29 09:26:08;;;;;;;;;;;;;;;11.24;100.00;96567.34;5083857;28;19955;-62
2022/09/29 09:28:36;;;;;;;;;;;;;;;11.28;100.00;96571.00;5080592;28;19986;-62
2022/09/29 09:31:06;;;;;;;;;;;;;;;11.29;100.00;96577.94;5080660;28;19956;-62
2022/09/29 09:33:36;;;;;;;;;;;;;;;11.45;100.00;96565.81;5083669;28;19952;-62
2022/09/29 09:36:05;;;;;;;;;;;;;;;11.55;100.00;96573.63;5082545;28;19993;-61
2022/09/29 09:38:40;;;;;;;;;;;;;;;11.37;100.00;96561.19;5080705;28;19968;-61
2022/09/29 09:41:08;;;;;;;;;;;;;;;11.45;100.00;96563.13;5080294;28;19932;-61
2022/09/29 09:43:36;;;;;;;;;;;;;;;11.53;100.00;96567.78;5083467;28;19951;-61
2022/09/29 09:46:08;;;;;;;;;;;;;;;11.58;100.00;96573.00;5083655;28;19991;-62
2022/09/29 09:48:36;;;;;;;;;;;;;;;11.47;100.00;96563.66;5079799;28;19925;-61
2022/09/29 09:51:13;;;;;;;;;;;;;;;11.46;100.00;96556.72;5079702;28;19951;-61
2022/09/29 09:53:41;;;;;;;;;;;;;;;11.61;100.00;96548.34;5072832;28;19967;-62
2022/09/29 09:56:15;;;;;;;;;;;;;;;11.75;100.00;96545.66;5079577;28;20027;-62
2022/09/29 09:59:06;;;;;;;;;;;;;;;11.65;100.00;96549.31;5071991;28;19924;-61
2022/09/29 10:01:32;;;;;;;;;;;;;;;11.72;100.00;96549.75;5081621;28;20004;-61
2022/09/29 10:03:59;;;;;;;;;;;;;;;11.80;100.00;96559.69;5082967;28;19984;-62
2022/09/29 10:06:26;;;;;;;;;;;;;;;11.90;100.00;96553.31;5080574;28;19966;-61
2022/09/29 10:08:52;;;;;;;;;;;;;;;11.96;100.00;96554.78;5079136;28;19960;-61
2022/09/29 10:11:23;;;;;;;;;;;;;;;11.84;100.00;96559.91;5080355;28;20214;-62
2022/09/29 10:13:52;;;;;;;;;;;;;;;11.99;100.00;96558.72;5082825;28;19989;-62
2022/09/29 10:16:22;;;;;;;;;;;;;;;12.07;100.00;96553.44;5081509;28;20288;-62
2022/09/29 10:18:51;;;;;;;;;;;;;;;12.13;100.00;96562.16;5079097;28;19967;-61
2022/09/29 10:21:22;;;;;;;;;;;;;;;12.00;100.00;96557.66;5080139;28;20404;-62
2022/09/29 10:23:51;;;;;;;;;;;;;;;12.02;100.00;96558.91;5080363;28;19925;-62
2022/09/29 10:26:19;;;;;;;;;;;;;;;12.05;100.00;96565.53;5081222;28;19960;-62
2022/09/29 10:28:52;;;;;;;;;;;;;;;11.89;100.00;96560.56;5078879;28;19935;-62
2022/09/29 10:31:21;;;;;;;;;;;;;;;11.82;100.00;96570.88;5079960;28;19925;-62
2022/09/29 10:33:50;;;;;;;;;;;;;;;11.97;100.00;96564.41;5082376;28;20000;-62
2022/09/29 10:36:19;;;;;;;;;;;;;;;11.98;100.00;96567.84;5081284;28;19955;-64
2022/09/29 10:38:47;;;;;;;;;;;;;;;12.06;100.00;96570.59;5078607;28;19982;-62
2022/09/29 10:41:13;;;;;;;;;;;;;;;12.14;100.00;96569.06;5079243;28;19933;-62
2022/09/29 10:43:41;;;;;;;;;;;;;;;12.12;100.00;96571.25;5082301;28;19924;-62
2022/09/29 10:46:26;;;;;;;;;;;;;;;12.17;100.00;96574.59;5082293;28;19929;-62
2022/09/29 10:49:08;;;;;;;;;;;;;;;12.24;100.00;96576.84;5072932;28;19948;-61
2022/09/29 10:51:34;;;;;;;;;;;;;;;12.28;100.00;96578.63;5081889;28;19936;-61
2022/09/29 10:54:07;;;;;;;;;;;;;;;12.49;100.00;96570.84;5082001;28;19999;-62
2022/09/29 10:56:34;;;;;;;;;;;;;;;12.42;100.00;96575.84;5081683;28;19924;-62
2022/09/29 10:59:01;;;;;;;;;;;;;;;12.38;100.00;96580.22;5082036;28;19983;-62
2022/09/29 11:01:30;;;;;;;;;;;;;;;12.29;100.00;96577.50;5079330;28;19996;-61
2022/09/29 11:04:00;;;;;;;;;;;;;;;12.22;100.00;96579.06;5078306;28;19983;-62
2022/09/29 11:06:28;;;;;;;;;;;;;;;12.20;100.00;96583.91;5080584;28;20144;-61
2022/09/29 11:08:56;;;;;;;;;;;;;;;12.12;100.00;96565.91;5081837;28;19924;-63
2022/09/29 11:11:24;;;;;;;;;;;;;;;12.12;100.00;96576.63;5079639;28;19925;-62
2022/09/29 11:13:51;;;;;;;;;;;;;;;12.18;100.00;96583.41;5078147;28;19927;-62
2022/09/29 11:16:18;;;;;;;;;;;;;;;12.33;100.00;96575.00;5078902;28;19920;-62
2022/09/29 11:18:46;;;;;;;;;;;;;;;12.44;100.00;96582.47;5081491;28;19978;-63
2022/09/29 11:21:26;;;;;;;;;;;;;;;12.48;100.00;96590.69;5080619;28;20020;-60
2022/09/29 11:23:57;;;;;;;;;;;;;;;12.42;100.00;96594.59;5074339;28;19928;-60
2022/09/29 11:26:29;;;;;;;;;;;;;;;12.66;100.00;96586.19;5078559;28;20209;-63
2022/09/29 11:29:19;;;;;;;;;;;;;;;12.57;100.00;96586.16;5078169;28;20314;-62
2022/09/29 11:31:53;;;;;;;;;;;;;;;12.34;100.00;96585.44;5075725;28;19935;-62
2022/09/29 11:34:29;;;;;;;;;;;;;;;12.40;100.00;96586.09;5078327;28;20015;-63
2022/09/29 11:37:03;;;;;;;;;;;;;;;12.48;100.00;96588.00;5081772;28;19929;-61
2022/09/29 11:39:37;;;;;;;;;;;;;;;12.42;100.00;96592.72;5078711;28;20019;-60
2022/09/29 11:42:13;;;;;;;;;;;;;;;12.36;100.00;96593.13;5077905;28;19938;-62
2022/09/29 11:44:48;;;;;;;;;;;;;;;12.38;100.00;96596.28;5070110;28;19979;-62
2022/09/29 11:47:25;;;;;;;;;;;;;;;12.50;100.00;96583.16;5078196;28;19992;-62
2022/09/29 11:49:58;;;;;;;;;;;;;;;12.68;100.00;96582.16;5081209;28;19925;-62
2022/09/29 11:52:38;;;;;;;;;;;;;;;12.69;100.00;96586.38;5078512;28;20028;-62
2022/09/29 11:55:17;;;;;;;;;;;;;;;12.80;100.00;96577.00;5080889;28;19928;-62
2022/09/29 11:57:49;;;;;;;;;;;;;;;12.78;100.00;96581.09;5070130;28;20420;-62
2022/09/29 12:00:17;;;;;;;;;;;;;;;12.81;100.00;96578.56;5077166;28;19992;-62
2022/09/29 12:03:01;;;;;;;;;;;;;;;12.78;100.00;96571.13;5080826;28;20043;-61
2022/09/29 12:05:30;;;;;;;;;;;;;;;12.56;100.00;96571.22;5057362;28;19995;-61
2022/09/29 12:08:04;;;;;;;;;;;;;;;12.62;100.00;96575.34;5077511;28;19925;-61
2022/09/29 12:10:37;;;;;;;;;;;;;;;12.66;100.00;96580.84;5080319;28;20004;-61
2022/09/29 12:13:08;;;;;;;;;;;;;;;12.68;100.00;96584.81;5081046;28;20394;-62
2022/09/29 12:15:40;;;;;;;;;;;;;;;12.85;100.00;96590.25;5077462;28;19935;-63
2022/09/29 12:18:11;;;;;;;;;;;;;;;12.83;100.00;96581.72;5076542;28;19933;-62
2022/09/29 12:20:39;;;;;;;;;;;;;;;12.90;100.00;96587.41;5069253;28;20027;-61
2022/09/29 12:23:09;;;;;;;;;;;;;;;12.81;100.00;96572.44;5075390;28;19963;-61
2022/09/29 12:25:40;;;;;;;;;;;;;;;12.62;100.00;96575.34;5069285;28;19929;-63
2022/09/29 12:28:12;;;;;;;;;;;;;;;12.48;100.00;96571.94;5077608;28;19928;-62
2022/09/29 12:30:43;;;;;;;;;;;;;;;12.51;100.00;96576.69;5069534;28;19924;-61
2022/09/29 12:33:13;;;;;;;;;;;;;;;12.44;100.00;96573.66;5077556;28;20298;-63
2022/09/29 12:35:43;;;;;;;;;;;;;;;12.45;100.00;96583.28;5069919;28;19931;-61
2022/09/29 12:38:15;;;;;;;;;;;;;;;12.48;100.00;96588.00;5077551;28;19924;-61
2022/09/29 12:40:46;;;;;;;;;;;;;;;12.63;100.00;96581.47;5069953;28;19925;-60
2022/09/29 12:43:14;;;;;;;;;;;;;;;12.74;100.00;96583.59;5077551;28;19943;-62
2022/09/29 12:45:45;;;;;;;;;;;;;;;12.75;100.00;96579.78;5080893;28;19938;-60
2022/09/29 12:48:30;;;;;;;;;;;;;;;12.86;100.00;96583.00;5080810;28;19924;-60